Muskegon, MI (49441)

10:38 AM EDT on September 01, 2015 (GMT -0400)
Henry St Near Airport | | Change Station
CLOSE
Current Station
Personal Weather Station
Location: NortonShores, MI
Elevation: 625 ft
Nearby Weather Stations

Elev 625 ft 43.17 °N, 86.26 °W | Updated 46 seconds ago

Clear
Clear
76.5 °F
Feels Like 77 °F
N
9.1
Wind Variable Wind from SSW
Gusts 18.5 mph

Today
High -- | Low -- °F
--% Chance of Precip.
Yesterday
High -- | Low -- °F
Precip. -- in
7:09 AM 8:20 PM
Waning Gibbous, 88% visible
Pressure 30.06 in
Visibility 5.0 miles
Clouds Few 4700 ft
Heat Index 77 °F
Dew Point 74 °F
Humidity 92%
Rainfall 0.00 in
Snow Depth Not available.
UV 1.0 out of 12
Pollen 10.80 out of 12
Air Quality Not available.
Flu Activity Not available.
METAR KMKG 011355Z 20007KT 5SM HZ FEW047 25/21 A3007 RMK AO2 SLP178 T02500211
Pressure 30.06 in
Visibility 5.0 miles
Clouds Few 4700 ft
Heat Index 77 °F
Dew Point 74 °F
Humidity 92%
Rainfall 0.00 in
Snow Depth Not available.
UV 1.0 out of 12
Pollen 10.80 out of 12
Air Quality Not available.
Flu Activity Not available.
METAR KMKG 011355Z 20007KT 5SM HZ FEW047 25/21 A3007 RMK AO2 SLP178 T02500211

10-Day Weather Forecast

×

Almanac

Astronomy

Sep. 01, 2015 Rise Set
Actual Time
Civil Twilight
Nautical Twilight
Astronomical Twilight
Moon
Length of Visible Light
Length of Day
Tomorrow will be .
, % of the Moon is Illuminated

Today's Extremes

State Highs State Lows

Community

WunderPhotos

Upload Photos

1,851,513 photos uploaded!

WunderBlogs® & News

Nearby

Air Quality

  Air Quality AQ Index Pollutant
Not available.

Snow Depth

Station Depth Elevation

Earthquake Activity

City Distance Mag. Time & Date
Minimum magnitude displayed is 2.5.

Coastal Water Temperatures

Place Temperature

Stations

Nearby Weather Stations

Station Location Temp. Windchill Dew Point Humidity Wind Precip. Elev Updated Type